Time;durP1;ratioP1;P1;durP2;ratioP2;P2;SDS_P1;SDS_P2;PMS_P1;PMS_P2;Temp;Humidity;BMP_temperature;BMP_pressure;BME280_temperature;BME280_humidity;BME280_pressure;Samples;Min_cycle;Max_cycle;Signal;HPM_P1;HPM_P2
2021/09/17 00:00:07;;;;;;;;;;;;;;;22.17;30.01;98017.88;4904909;29;1107;-79
2021/09/17 00:02:52;;;;;;;;;;;;;;;22.13;29.80;98011.56;4903410;29;925;-79
2021/09/17 00:05:18;;;;;;;;;;;;;;;22.26;29.55;98014.41;4903830;29;771;-80
2021/09/17 00:07:43;;;;;;;;;;;;;;;22.26;29.68;98009.53;4903888;29;807;-79
2021/09/17 00:10:09;;;;;;;;;;;;;;;22.32;29.73;98006.94;4888118;29;1907;-79
2021/09/17 00:12:34;;;;;;;;;;;;;;;22.29;29.72;98002.97;4904960;29;874;-79
2021/09/17 00:15:00;;;;;;;;;;;;;;;22.27;29.57;98005.44;4907490;29;880;-79
2021/09/17 00:17:25;;;;;;;;;;;;;;;22.29;29.48;98005.81;4907145;29;1018;-79
2021/09/17 00:19:50;;;;;;;;;;;;;;;22.21;29.50;98001.59;4907584;29;1027;-79
2021/09/17 00:22:16;;;;;;;;;;;;;;;22.19;29.57;98004.09;4907698;29;747;-79
2021/09/17 00:24:41;;;;;;;;;;;;;;;22.22;29.53;97996.69;4907597;29;600;-79
2021/09/17 00:27:07;;;;;;;;;;;;;;;22.22;29.51;97997.50;4907441;29;1034;-79
2021/09/17 00:29:32;;;;;;;;;;;;;;;22.21;29.63;97998.75;4891509;29;906;-79
2021/09/17 00:31:58;;;;;;;;;;;;;;;22.23;29.41;98001.94;4907684;29;1902;-79
2021/09/17 00:34:26;;;;;;;;;;;;;;;22.23;29.27;97998.31;4908218;29;779;-79
2021/09/17 00:36:52;;;;;;;;;;;;;;;22.31;29.29;97994.81;4908649;29;677;-79
2021/09/17 00:39:17;;;;;;;;;;;;;;;22.28;29.34;97990.06;4908625;29;637;-79
2021/09/17 00:41:43;;;;;;;;;;;;;;;22.22;29.37;97986.16;4908609;29;704;-79
2021/09/17 00:44:08;;;;;;;;;;;;;;;22.19;29.50;97984.25;4908333;29;1019;-79
2021/09/17 00:46:34;;;;;;;;;;;;;;;22.22;29.58;97974.81;4907399;29;948;-80
2021/09/17 00:48:59;;;;;;;;;;;;;;;22.34;29.08;97979.75;4908248;29;815;-79
2021/09/17 00:51:25;;;;;;;;;;;;;;;22.43;28.92;97981.09;4908313;29;1906;-79
2021/09/17 00:53:50;;;;;;;;;;;;;;;22.30;29.33;97973.38;4907613;29;680;-80
2021/09/17 00:56:16;;;;;;;;;;;;;;;22.33;29.18;97975.31;4908442;29;656;-79
2021/09/17 00:58:41;;;;;;;;;;;;;;;22.08;29.41;97978.84;4908244;29;652;-79
2021/09/17 01:01:07;;;;;;;;;;;;;;;22.19;29.60;97974.94;4907829;29;1085;-79
2021/09/17 01:03:32;;;;;;;;;;;;;;;22.26;29.27;97969.06;4908157;29;901;-79
2021/09/17 01:05:59;;;;;;;;;;;;;;;22.24;29.22;97963.84;4907935;29;852;-79
2021/09/17 01:08:31;;;;;;;;;;;;;;;22.26;29.53;97964.19;4908258;29;781;-79
2021/09/17 01:11:11;;;;;;;;;;;;;;;22.20;29.35;97960.31;4907972;29;1903;-79
2021/09/17 01:13:46;;;;;;;;;;;;;;;22.19;29.38;97955.91;4907116;29;1025;-79
2021/09/17 01:16:15;;;;;;;;;;;;;;;22.22;29.44;97952.16;4906924;29;843;-79
2021/09/17 01:18:40;;;;;;;;;;;;;;;22.24;29.24;97955.34;4907828;29;614;-79
2021/09/17 01:21:06;;;;;;;;;;;;;;;22.19;29.30;97947.41;4907822;29;644;-79
2021/09/17 01:23:31;;;;;;;;;;;;;;;22.31;29.07;97943.78;4907000;29;632;-78
2021/09/17 01:25:57;;;;;;;;;;;;;;;22.19;29.52;97941.72;4907835;29;668;-79
2021/09/17 01:28:26;;;;;;;;;;;;;;;22.11;29.59;97940.34;4907401;29;867;-80
2021/09/17 01:30:51;;;;;;;;;;;;;;;22.07;29.68;97928.28;4907443;29;1973;-79
2021/09/17 01:33:17;;;;;;;;;;;;;;;22.19;29.32;97930.41;4907518;29;967;-79
2021/09/17 01:35:42;;;;;;;;;;;;;;;22.24;29.52;97927.00;4907308;29;683;-79
2021/09/17 01:38:08;;;;;;;;;;;;;;;22.23;29.44;97925.41;4906907;29;691;-79
2021/09/17 01:40:36;;;;;;;;;;;;;;;22.22;29.44;97923.81;4907571;29;819;-79
2021/09/17 01:43:02;;;;;;;;;;;;;;;22.11;29.57;97923.34;4907056;29;1167;-79
2021/09/17 01:45:33;;;;;;;;;;;;;;;22.21;29.59;97916.56;4906512;29;881;-79
2021/09/17 01:47:59;;;;;;;;;;;;;;;22.02;29.89;97914.66;4907387;29;1070;-79
2021/09/17 01:50:24;;;;;;;;;;;;;;;22.16;29.67;97913.50;4907205;29;1915;-79
2021/09/17 01:52:50;;;;;;;;;;;;;;;22.17;29.61;97910.19;4907089;29;679;-79
2021/09/17 01:55:17;;;;;;;;;;;;;;;22.18;29.52;97906.16;4907118;29;712;-80
2021/09/17 01:57:42;;;;;;;;;;;;;;;22.16;29.51;97914.28;4906571;29;662;-79
2021/09/17 02:00:08;;;;;;;;;;;;;;;22.30;29.52;97908.19;4907370;29;1001;-79
2021/09/17 02:02:36;;;;;;;;;;;;;;;22.23;29.28;97913.28;4906068;29;982;-79
2021/09/17 02:05:02;;;;;;;;;;;;;;;22.22;29.51;97911.69;4907036;29;924;-79
2021/09/17 02:07:28;;;;;;;;;;;;;;;22.15;29.33;97909.06;4906479;29;637;-79
2021/09/17 02:09:53;;;;;;;;;;;;;;;22.28;29.12;97901.41;4906983;29;660;-79
2021/09/17 02:12:19;;;;;;;;;;;;;;;22.29;29.34;97905.81;4906880;29;1970;-79
2021/09/17 02:14:44;;;;;;;;;;;;;;;22.16;29.51;97897.28;4906523;29;912;-79
2021/09/17 02:17:10;;;;;;;;;;;;;;;22.29;29.28;97894.47;4906619;29;906;-79
2021/09/17 02:19:35;;;;;;;;;;;;;;;22.21;29.48;97895.94;4906725;29;929;-79
2021/09/17 02:22:00;;;;;;;;;;;;;;;22.14;29.32;97888.44;4906348;29;724;-79
2021/09/17 02:24:26;;;;;;;;;;;;;;;22.08;29.58;97890.22;4906736;29;656;-79
2021/09/17 02:26:52;;;;;;;;;;;;;;;22.11;29.56;97889.34;4906627;29;636;-79
2021/09/17 02:29:17;;;;;;;;;;;;;;;22.29;29.47;97894.47;4905630;29;1113;-79
2021/09/17 02:31:42;;;;;;;;;;;;;;;22.26;29.49;97884.81;4905600;29;1911;-79
2021/09/17 02:34:08;;;;;;;;;;;;;;;22.20;29.33;97885.84;4906441;29;965;-79
2021/09/17 02:36:33;;;;;;;;;;;;;;;22.30;29.01;97874.16;4905830;29;746;-79
2021/09/17 02:38:59;;;;;;;;;;;;;;;22.23;29.30;97868.75;4905840;29;660;-79
2021/09/17 02:41:24;;;;;;;;;;;;;;;22.28;29.27;97882.34;4906419;29;699;-79
2021/09/17 02:43:50;;;;;;;;;;;;;;;22.14;29.40;97877.09;4905969;29;995;-79
2021/09/17 02:46:15;;;;;;;;;;;;;;;22.04;29.77;97878.19;4906015;29;905;-79
2021/09/17 02:48:43;;;;;;;;;;;;;;;22.12;29.70;97878.78;4906329;29;1002;-78
2021/09/17 02:51:08;;;;;;;;;;;;;;;22.10;29.73;97876.38;4906145;29;1907;-79
2021/09/17 02:53:33;;;;;;;;;;;;;;;22.22;29.26;97878.47;4906056;29;633;-79
2021/09/17 02:55:59;;;;;;;;;;;;;;;22.28;29.49;97882.34;4906128;29;624;-79
2021/09/17 02:58:25;;;;;;;;;;;;;;;22.27;29.26;97869.41;4905913;29;930;-79
2021/09/17 03:00:51;;;;;;;;;;;;;;;22.21;29.65;97870.41;4905668;29;851;-79
2021/09/17 03:03:16;;;;;;;;;;;;;;;22.22;29.31;97872.78;4905871;29;1031;-79
2021/09/17 03:05:45;;;;;;;;;;;;;;;22.24;29.22;97867.50;4905287;29;1086;-79
2021/09/17 03:08:10;;;;;;;;;;;;;;;22.14;29.67;97865.00;4904930;29;1189;-79
2021/09/17 03:10:36;;;;;;;;;;;;;;;22.19;29.69;97856.72;4915670;29;1914;-79
2021/09/17 03:13:01;;;;;;;;;;;;;;;22.12;29.62;97856.13;4907682;29;1244;-78
2021/09/17 03:15:27;;;;;;;;;;;;;;;22.21;29.32;97848.53;4911865;29;1169;-79
2021/09/17 03:17:52;;;;;;;;;;;;;;;22.23;29.31;97857.41;4906054;29;1153;-78
2021/09/17 03:20:18;;;;;;;;;;;;;;;22.27;29.20;97851.59;4915547;29;1370;-79
2021/09/17 03:22:43;;;;;;;;;;;;;;;22.16;29.52;97851.94;4905287;29;1197;-79
2021/09/17 03:25:09;;;;;;;;;;;;;;;22.03;29.85;97854.75;4913398;29;1221;-79
2021/09/17 03:27:34;;;;;;;;;;;;;;;22.17;29.59;97859.19;4917960;29;1185;-79
2021/09/17 03:30:00;;;;;;;;;;;;;;;22.22;29.41;97855.00;4924677;29;659;-79
2021/09/17 03:32:25;;;;;;;;;;;;;;;22.18;29.40;97857.97;4924092;29;1903;-79
2021/09/17 03:34:51;;;;;;;;;;;;;;;22.16;29.65;97857.59;4924100;29;910;-79
2021/09/17 03:37:16;;;;;;;;;;;;;;;22.25;29.67;97860.56;4924285;29;962;-79
2021/09/17 03:39:42;;;;;;;;;;;;;;;22.19;29.52;97862.38;4924568;29;703;-79
2021/09/17 03:42:07;;;;;;;;;;;;;;;22.35;29.44;97864.31;4924297;29;746;-79
2021/09/17 03:44:33;;;;;;;;;;;;;;;22.25;29.58;97860.56;4924148;29;1013;-79
2021/09/17 03:46:59;;;;;;;;;;;;;;;22.27;29.39;97858.06;4924042;29;962;-79
2021/09/17 03:49:24;;;;;;;;;;;;;;;22.25;29.62;97854.91;4924032;29;882;-79
2021/09/17 03:51:50;;;;;;;;;;;;;;;22.23;29.55;97850.94;4908714;29;1964;-79
2021/09/17 03:54:15;;;;;;;;;;;;;;;22.27;29.48;97851.59;4905222;29;1400;-79
2021/09/17 03:56:41;;;;;;;;;;;;;;;22.29;29.39;97844.25;4905299;29;691;-79
2021/09/17 03:59:07;;;;;;;;;;;;;;;22.21;29.61;97844.91;4904907;29;938;-79
2021/09/17 04:01:32;;;;;;;;;;;;;;;22.29;29.35;97841.41;4904863;29;956;-80
2021/09/17 04:03:58;;;;;;;;;;;;;;;22.28;29.26;97845.50;4905225;29;951;-79
2021/09/17 04:06:23;;;;;;;;;;;;;;;22.30;29.39;97845.81;4905036;29;652;-79
2021/09/17 04:08:48;;;;;;;;;;;;;;;22.18;29.66;97855.13;4905168;29;676;-79
2021/09/17 04:11:14;;;;;;;;;;;;;;;22.16;29.60;97846.28;4905072;29;1899;-79
2021/09/17 04:13:39;;;;;;;;;;;;;;;22.36;29.40;97857.38;4905024;29;971;-79
2021/09/17 04:16:05;;;;;;;;;;;;;;;22.32;29.14;97854.66;4904695;29;948;-79
2021/09/17 04:18:30;;;;;;;;;;;;;;;22.19;29.60;97851.03;4905332;29;956;-79
2021/09/17 04:20:55;;;;;;;;;;;;;;;22.10;29.59;97853.72;4904824;29;1364;-78
2021/09/17 04:23:21;;;;;;;;;;;;;;;22.32;29.20;97849.00;4905009;29;703;-79
2021/09/17 04:25:46;;;;;;;;;;;;;;;22.28;29.25;97845.50;4904784;29;1491;-79
2021/09/17 04:28:12;;;;;;;;;;;;;;;22.17;29.52;97853.53;4904573;29;899;-79
2021/09/17 04:30:37;;;;;;;;;;;;;;;22.25;29.41;97837.88;4904510;29;1972;-79
2021/09/17 04:33:03;;;;;;;;;;;;;;;22.20;29.53;97846.97;4904922;29;984;-79
2021/09/17 04:35:28;;;;;;;;;;;;;;;22.32;29.35;97848.19;4905050;29;664;-79
2021/09/17 04:37:56;;;;;;;;;;;;;;;22.20;29.60;97852.63;4904910;29;736;-79
2021/09/17 04:40:22;;;;;;;;;;;;;;;22.28;29.34;97854.00;4904850;29;644;-79
2021/09/17 04:42:47;;;;;;;;;;;;;;;22.33;28.98;97850.59;4903578;29;1154;-79
2021/09/17 04:45:13;;;;;;;;;;;;;;;22.38;28.89;97851.25;4904597;29;895;-79
2021/09/17 04:47:39;;;;;;;;;;;;;;;22.31;29.47;97846.63;4904682;29;1139;-79
2021/09/17 04:50:04;;;;;;;;;;;;;;;22.48;28.94;97847.28;4904432;29;1285;-79
2021/09/17 04:52:30;;;;;;;;;;;;;;;22.45;29.17;97842.53;4904914;29;1982;-79
2021/09/17 04:54:59;;;;;;;;;;;;;;;22.25;29.28;97843.56;4905055;29;738;-79
2021/09/17 04:57:24;;;;;;;;;;;;;;;22.24;29.55;97847.66;4904281;29;928;-79
2021/09/17 04:59:50;;;;;;;;;;;;;;;22.30;29.39;97845.81;4907375;29;839;-79
2021/09/17 05:02:15;;;;;;;;;;;;;;;22.39;29.22;97847.19;4907172;29;1142;-79
2021/09/17 05:04:41;;;;;;;;;;;;;;;22.38;29.40;97842.75;4908130;29;704;-79
2021/09/17 05:07:06;;;;;;;;;;;;;;;22.22;29.48;97838.78;4908112;29;617;-79
2021/09/17 05:09:33;;;;;;;;;;;;;;;22.29;29.49;97832.91;4908132;29;648;-79
2021/09/17 05:11:58;;;;;;;;;;;;;;;22.11;29.67;97838.34;4907649;29;1981;-80
2021/09/17 05:14:23;;;;;;;;;;;;;;;22.31;29.34;97836.06;4907665;29;906;-80
2021/09/17 05:16:49;;;;;;;;;;;;;;;22.30;29.45;97837.31;4907924;29;1039;-79
2021/09/17 05:19:14;;;;;;;;;;;;;;;22.34;29.35;97835.19;4907965;29;692;-79
2021/09/17 05:21:40;;;;;;;;;;;;;;;22.39;28.99;97833.03;4907738;29;1388;-79
2021/09/17 05:24:05;;;;;;;;;;;;;;;22.29;29.55;97837.78;4907806;29;647;-79
2021/09/17 05:26:31;;;;;;;;;;;;;;;22.18;29.66;97838.13;4907586;29;1094;-79
2021/09/17 05:28:56;;;;;;;;;;;;;;;22.19;29.53;97834.03;4907426;29;996;-79
2021/09/17 05:31:22;;;;;;;;;;;;;;;22.19;29.56;97828.38;4907613;29;1982;-79
2021/09/17 05:33:47;;;;;;;;;;;;;;;22.38;29.18;97828.56;4907825;29;672;-80
2021/09/17 05:36:13;;;;;;;;;;;;;;;22.34;29.40;97831.56;4907074;29;625;-79
2021/09/17 05:38:38;;;;;;;;;;;;;;;22.20;29.69;97841.28;4907614;29;751;-79
2021/09/17 05:41:03;;;;;;;;;;;;;;;22.28;29.62;97836.22;4907204;29;975;-78
2021/09/17 05:43:29;;;;;;;;;;;;;;;22.24;29.33;97835.53;4905939;29;1023;-79
2021/09/17 05:45:54;;;;;;;;;;;;;;;22.32;29.45;97831.97;4907412;29;888;-79
2021/09/17 05:48:20;;;;;;;;;;;;;;;22.32;29.44;97837.66;4907520;29;844;-79
2021/09/17 05:50:45;;;;;;;;;;;;;;;22.28;29.40;97839.03;4906959;29;1903;-79
2021/09/17 05:53:11;;;;;;;;;;;;;;;22.25;29.69;97843.56;4906966;29;1420;-79
2021/09/17 05:55:36;;;;;;;;;;;;;;;22.25;29.54;97837.88;4906293;29;1096;-80
2021/09/17 05:58:02;;;;;;;;;;;;;;;22.21;29.85;97845.69;4907001;29;908;-79
2021/09/17 06:00:27;;;;;;;;;;;;;;;22.20;29.83;97834.84;4906150;29;1342;-79
2021/09/17 06:02:53;;;;;;;;;;;;;;;22.28;29.49;97830.53;4907122;29;664;-79
2021/09/17 06:05:18;;;;;;;;;;;;;;;22.20;29.59;97841.28;4907012;29;1365;-79
2021/09/17 06:07:44;;;;;;;;;;;;;;;22.25;29.83;97843.56;4906772;29;1403;-79
2021/09/17 06:10:10;;;;;;;;;;;;;;;22.36;29.62;97844.00;4918187;29;1173;-79
2021/09/17 06:12:35;;;;;;;;;;;;;;;22.25;29.94;97852.06;4924432;29;1332;-79
2021/09/17 06:15:01;;;;;;;;;;;;;;;22.21;29.77;97837.19;4906859;29;1522;-80
2021/09/17 06:17:26;;;;;;;;;;;;;;;22.31;29.76;97841.75;4907111;29;766;-80
2021/09/17 06:19:52;;;;;;;;;;;;;;;22.44;29.64;97843.78;4906262;29;728;-80
2021/09/17 06:22:17;;;;;;;;;;;;;;;20.71;29.42;97561.53;4906902;29;695;-79
2021/09/17 06:24:42;;;;;;;;;;;;;;;22.32;29.65;97842.53;4905556;29;1441;-79
2021/09/17 06:27:08;;;;;;;;;;;;;;;22.18;30.07;97832.47;4905842;29;890;-79
2021/09/17 06:29:33;;;;;;;;;;;;;;;22.35;29.86;97845.25;4906560;29;928;-79
2021/09/17 06:31:59;;;;;;;;;;;;;;;22.26;30.02;97842.31;4906584;29;1891;-79
2021/09/17 06:34:25;;;;;;;;;;;;;;;22.31;29.93;97847.41;4906205;29;1451;-79
2021/09/17 06:36:52;;;;;;;;;;;;;;;22.32;29.89;97843.31;4906223;29;660;-79
2021/09/17 06:39:17;;;;;;;;;;;;;;;22.33;29.87;97846.97;4906036;29;932;-79
2021/09/17 06:41:43;;;;;;;;;;;;;;;22.33;29.67;97839.25;4905301;29;904;-79
2021/09/17 06:44:08;;;;;;;;;;;;;;;22.34;29.94;97843.69;4905910;29;1097;-79
2021/09/17 06:46:34;;;;;;;;;;;;;;;22.27;29.93;97846.72;4905828;29;1460;-79
2021/09/17 06:48:59;;;;;;;;;;;;;;;22.36;30.01;97844.00;4906370;29;729;-79
2021/09/17 06:51:24;;;;;;;;;;;;;;;22.17;30.37;97830.84;4904977;29;1911;-79
2021/09/17 06:53:50;;;;;;;;;;;;;;;22.11;30.46;97827.00;4910009;29;1341;-80
2021/09/17 06:56:15;;;;;;;;;;;;;;;22.36;30.01;97832.66;4909875;29;1424;-79
2021/09/17 06:58:41;;;;;;;;;;;;;;;22.32;30.15;97831.19;4905143;29;852;-80
2021/09/17 07:01:06;;;;;;;;;;;;;;;22.30;30.21;97828.81;4905739;29;645;-79
2021/09/17 07:03:32;;;;;;;;;;;;;;;22.32;30.08;97826.31;4905005;29;1388;-79
2021/09/17 07:05:57;;;;;;;;;;;;;;;22.32;30.16;97839.69;4905662;29;1352;-79
2021/09/17 07:08:23;;;;;;;;;;;;;;;22.34;30.13;97840.84;4905349;29;978;-80
2021/09/17 07:10:48;;;;;;;;;;;;;;;22.26;30.17;97836.63;4888716;29;1896;-80
2021/09/17 07:13:14;;;;;;;;;;;;;;;22.32;30.20;97837.66;4905729;29;951;-79
2021/09/17 07:15:39;;;;;;;;;;;;;;;22.42;29.83;97829.25;4905615;29;608;-79
2021/09/17 07:18:08;;;;;;;;;;;;;;;22.39;29.89;97828.16;4905493;29;1352;-79
2021/09/17 07:20:33;;;;;;;;;;;;;;;22.43;29.84;97830.84;4905012;29;703;-79
2021/09/17 07:23:05;;;;;;;;;;;;;;;22.48;29.88;97830.28;4904878;29;954;-79
2021/09/17 07:25:30;;;;;;;;;;;;;;;22.36;30.08;97824.16;4905086;29;828;-79
2021/09/17 07:27:56;;;;;;;;;;;;;;;22.40;30.46;97824.06;4904416;29;1358;-80
2021/09/17 07:30:22;;;;;;;;;;;;;;;22.50;29.81;97824.97;4905317;29;1974;-79
2021/09/17 07:32:47;;;;;;;;;;;;;;;22.40;30.29;97820.44;4904603;29;693;-79
2021/09/17 07:35:13;;;;;;;;;;;;;;;22.40;30.23;97820.44;4904578;29;720;-79
2021/09/17 07:37:38;;;;;;;;;;;;;;;22.48;30.19;97828.22;4903819;29;1338;-79
2021/09/17 07:40:04;;;;;;;;;;;;;;;22.39;30.43;97833.03;4904898;29;877;-79
2021/09/17 07:42:30;;;;;;;;;;;;;;;22.35;30.26;97831.09;4905069;29;982;-79
2021/09/17 07:44:55;;;;;;;;;;;;;;;22.44;30.09;97826.78;4905035;29;596;-79
2021/09/17 07:47:20;;;;;;;;;;;;;;;22.43;30.42;97836.50;4905249;29;964;-79
2021/09/17 07:49:46;;;;;;;;;;;;;;;22.30;30.49;97840.16;4904887;29;1424;-79
2021/09/17 07:52:11;;;;;;;;;;;;;;;22.34;30.39;97823.84;4904574;29;1911;-80
2021/09/17 07:54:37;;;;;;;;;;;;;;;22.45;30.21;97825.53;4904679;29;1322;-79
2021/09/17 07:57:03;;;;;;;;;;;;;;;22.43;30.24;97820.28;4904819;29;1050;-79
2021/09/17 07:59:29;;;;;;;;;;;;;;;22.40;30.28;97828.94;4904691;29;1337;-80
2021/09/17 08:01:54;;;;;;;;;;;;;;;22.41;30.31;97836.19;4904606;29;1360;-79
2021/09/17 08:04:20;;;;;;;;;;;;;;;22.36;30.27;97831.88;4905022;29;664;-79
2021/09/17 08:06:45;;;;;;;;;;;;;;;22.41;30.56;97833.34;4904445;29;1097;-79
2021/09/17 08:09:12;;;;;;;;;;;;;;;22.43;30.37;97822.34;4904500;29;914;-79
2021/09/17 08:11:37;;;;;;;;;;;;;;;22.42;30.42;97818.72;4904479;29;1969;-79
2021/09/17 08:14:03;;;;;;;;;;;;;;;22.41;30.55;97810.66;4904785;29;660;-79
2021/09/17 08:16:28;;;;;;;;;;;;;;;22.41;30.56;97799.34;4904111;29;732;-79
2021/09/17 08:18:54;;;;;;;;;;;;;;;22.29;30.56;97815.91;4904814;29;608;-80
2021/09/17 08:21:19;;;;;;;;;;;;;;;22.41;30.30;97800.13;4904416;29;1373;-79
2021/09/17 08:23:45;;;;;;;;;;;;;;;22.57;30.38;97802.03;4904358;29;1627;-80
2021/09/17 08:26:10;;;;;;;;;;;;;;;22.53;30.40;97798.50;4904078;29;1052;-79
2021/09/17 08:28:36;;;;;;;;;;;;;;;22.57;30.41;97797.16;4904078;29;760;-79
2021/09/17 08:31:03;;;;;;;;;;;;;;;22.40;30.40;97792.09;4903579;29;1903;-79
2021/09/17 08:33:29;;;;;;;;;;;;;;;22.35;30.78;97799.91;4904963;29;1393;-79
2021/09/17 08:35:55;;;;;;;;;;;;;;;22.40;30.28;97789.25;4908045;29;1353;-79
2021/09/17 08:38:20;;;;;;;;;;;;;;;22.52;30.46;97789.22;4908256;29;826;-79
2021/09/17 08:40:50;;;;;;;;;;;;;;;22.59;30.36;97794.66;4908311;29;971;-80
2021/09/17 08:43:16;;;;;;;;;;;;;;;22.59;30.11;97782.53;4907151;29;1106;-80
2021/09/17 08:45:43;;;;;;;;;;;;;;;22.50;30.63;97794.56;4907364;29;1449;-78
2021/09/17 08:48:10;;;;;;;;;;;;;;;22.50;30.46;97790.94;4908333;29;687;-79
2021/09/17 08:50:40;;;;;;;;;;;;;;;22.59;30.25;97782.53;4906971;29;1970;-79
2021/09/17 08:53:06;;;;;;;;;;;;;;;22.47;30.49;97786.16;4906919;29;906;-79
2021/09/17 08:55:31;;;;;;;;;;;;;;;22.43;30.72;97776.97;4907028;29;1337;-79
2021/09/17 08:57:57;;;;;;;;;;;;;;;22.52;30.32;97777.09;4908479;29;688;-79
2021/09/17 09:00:25;;;;;;;;;;;;;;;22.43;30.54;97779.81;4907954;29;565;-79
2021/09/17 09:02:54;;;;;;;;;;;;;;;22.48;30.52;97773.56;4907987;29;596;-79
2021/09/17 09:05:20;;;;;;;;;;;;;;;22.38;30.77;97766.22;4906712;29;1394;-79
2021/09/17 09:07:45;;;;;;;;;;;;;;;22.61;30.33;97765.84;4907009;29;1281;-79
2021/09/17 09:10:11;;;;;;;;;;;;;;;22.69;30.08;97767.19;4907122;29;1346;-79
2021/09/17 09:12:47;;;;;;;;;;;;;;;22.55;30.59;97759.16;4907740;29;1972;-79
2021/09/17 09:15:19;;;;;;;;;;;;;;;22.57;30.42;97763.13;4907834;29;652;-79
2021/09/17 09:17:48;;;;;;;;;;;;;;;22.50;30.56;97762.59;4907378;29;1356;-79
2021/09/17 09:20:21;;;;;;;;;;;;;;;22.46;30.78;97756.22;4906596;29;1055;-79
2021/09/17 09:23:01;;;;;;;;;;;;;;;22.50;30.54;97752.03;4906695;29;953;-79
2021/09/17 09:25:27;;;;;;;;;;;;;;;22.39;31.10;97757.28;4906956;29;723;-79
2021/09/17 09:27:53;;;;;;;;;;;;;;;22.49;30.69;97741.16;4906683;29;1390;-79
2021/09/17 09:30:28;;;;;;;;;;;;;;;22.48;30.60;97753.72;4907378;29;1962;-79
2021/09/17 09:32:53;;;;;;;;;;;;;;;22.46;30.53;97733.56;4907478;29;715;-79
2021/09/17 09:35:27;;;;;;;;;;;;;;;22.58;30.52;97738.38;4907096;29;894;-79
2021/09/17 09:37:53;;;;;;;;;;;;;;;22.54;30.59;97723.56;4906060;29;1409;-78
2021/09/17 09:40:18;;;;;;;;;;;;;;;22.60;30.69;97710.38;4907418;29;996;-79
2021/09/17 09:42:44;;;;;;;;;;;;;;;22.61;30.43;97723.31;4907134;29;1130;-79
2021/09/17 09:45:14;;;;;;;;;;;;;;;22.58;30.62;97722.16;4907104;29;560;-79
2021/09/17 09:47:40;;;;;;;;;;;;;;;22.63;30.56;97730.09;4906288;29;1460;-79
2021/09/17 09:50:06;;;;;;;;;;;;;;;22.65;30.37;97720.34;4906548;29;1044;-79
2021/09/17 09:52:31;;;;;;;;;;;;;;;22.66;30.22;97722.72;4906815;29;1907;-78
2021/09/17 09:54:57;;;;;;;;;;;;;;;22.54;30.77;97715.06;4907004;29;943;-79
2021/09/17 09:57:22;;;;;;;;;;;;;;;22.56;30.43;97713.34;4906780;29;1377;-79
2021/09/17 09:59:49;;;;;;;;;;;;;;;22.38;30.92;97723.69;4907123;29;708;-79
2021/09/17 10:02:15;;;;;;;;;;;;;;;22.36;31.00;97719.28;4906226;29;612;-79
2021/09/17 10:04:40;;;;;;;;;;;;;;;22.49;30.87;97721.31;4905884;29;1033;-79
2021/09/17 10:07:06;;;;;;;;;;;;;;;22.57;30.28;97712.06;4906096;29;821;-79
2021/09/17 10:09:32;;;;;;;;;;;;;;;22.62;30.29;97713.53;4906412;29;1345;-79
2021/09/17 10:12:01;;;;;;;;;;;;;;;22.46;30.80;97710.88;4906755;29;1973;-79
2021/09/17 10:14:28;;;;;;;;;;;;;;;22.57;30.50;97711.28;4904132;29;1278;-79
2021/09/17 10:16:54;;;;;;;;;;;;;;;22.57;30.55;97705.63;4925694;29;711;-79
2021/09/17 10:19:19;;;;;;;;;;;;;;;22.62;30.44;97707.88;4915296;29;1391;-79
2021/09/17 10:21:45;;;;;;;;;;;;;;;22.54;30.84;97706.56;4905628;29;1059;-79
2021/09/17 10:24:26;;;;;;;;;;;;;;;22.52;30.45;97703.38;4906347;29;960;-79
2021/09/17 10:26:54;;;;;;;;;;;;;;;22.45;30.57;97709.28;4906755;29;915;-79
2021/09/17 10:29:25;;;;;;;;;;;;;;;22.53;30.85;97693.59;4905554;29;1362;-79
2021/09/17 10:31:50;;;;;;;;;;;;;;;22.60;30.74;97693.38;4905783;29;1899;-79
2021/09/17 10:34:39;;;;;;;;;;;;;;;22.53;30.40;97691.56;4906340;29;728;-80
2021/09/17 10:37:04;;;;;;;;;;;;;;;22.54;30.53;97692.38;4906094;29;996;-79
2021/09/17 10:39:30;;;;;;;;;;;;;;;22.50;30.76;97680.34;4906210;29;1313;-79
2021/09/17 10:42:08;;;;;;;;;;;;;;;22.55;30.42;97679.78;4906200;29;637;-79
2021/09/17 10:44:53;;;;;;;;;;;;;;;22.54;30.55;97672.53;4905372;29;1002;-79
2021/09/17 10:47:37;;;;;;;;;;;;;;;22.46;30.50;97662.69;4906270;29;732;-79
2021/09/17 10:50:06;;;;;;;;;;;;;;;22.45;30.71;97663.94;4906036;29;712;-79
2021/09/17 10:52:42;;;;;;;;;;;;;;;22.49;30.75;97667.44;4904727;29;1915;-79
2021/09/17 10:55:08;;;;;;;;;;;;;;;22.50;30.78;97666.19;4905565;29;909;-79
2021/09/17 10:57:53;;;;;;;;;;;;;;;22.57;30.55;97657.41;4905546;29;675;-79
2021/09/17 11:00:37;;;;;;;;;;;;;;;22.57;30.75;97660.25;4905734;29;1078;-78
2021/09/17 11:03:03;;;;;;;;;;;;;;;22.63;30.61;97664.06;4905861;29;667;-79
2021/09/17 11:05:28;;;;;;;;;;;;;;;22.67;30.61;97666.78;4905790;29;640;-79
2021/09/17 11:07:53;;;;;;;;;;;;;;;22.62;30.43;97657.59;4905558;29;1015;-79
2021/09/17 11:10:23;;;;;;;;;;;;;;;22.49;30.59;97641.91;4905434;29;921;-79
2021/09/17 11:12:49;;;;;;;;;;;;;;;22.44;30.83;97639.69;4905652;29;1047;-79
2021/09/17 11:15:18;;;;;;;;;;;;;;;22.44;30.74;97645.34;4905502;29;716;-79
2021/09/17 11:17:50;;;;;;;;;;;;;;;22.50;30.60;97637.81;4904985;29;735;-79
2021/09/17 11:20:17;;;;;;;;;;;;;;;22.53;30.79;97637.69;4904898;29;720;-79
2021/09/17 11:22:46;;;;;;;;;;;;;;;22.53;30.75;97631.22;4904518;29;852;-79
2021/09/17 11:25:12;;;;;;;;;;;;;;;22.58;30.62;97639.13;4904410;29;959;-79
2021/09/17 11:27:42;;;;;;;;;;;;;;;22.46;30.86;97637.94;4905623;29;1084;-79
2021/09/17 11:30:08;;;;;;;;;;;;;;;22.54;30.54;97644.16;4905391;29;636;-79
2021/09/17 11:32:34;;;;;;;;;;;;;;;22.53;30.78;97631.22;4904587;29;1899;-79
2021/09/17 11:35:06;;;;;;;;;;;;;;;22.47;30.96;97636.69;4905265;29;679;-79
2021/09/17 11:37:31;;;;;;;;;;;;;;;22.47;31.04;97633.06;4904271;29;986;-79
2021/09/17 11:40:06;;;;;;;;;;;;;;;22.52;30.75;97636.09;4904953;29;940;-79
2021/09/17 11:42:32;;;;;;;;;;;;;;;22.52;31.00;97636.09;4905517;29;666;-79
2021/09/17 11:44:57;;;;;;;;;;;;;;;22.67;30.48;97632.75;4904978;29;1018;-79
2021/09/17 11:47:27;;;;;;;;;;;;;;;22.53;30.90;97619.88;4904338;29;673;-79
2021/09/17 11:49:56;;;;;;;;;;;;;;;22.63;30.66;97627.22;4905068;29;680;-79
2021/09/17 11:52:21;;;;;;;;;;;;;;;22.65;30.34;97619.03;4904753;29;1899;-79
2021/09/17 11:54:57;;;;;;;;;;;;;;;22.69;30.53;97616.88;4904841;29;832;-79
2021/09/17 11:57:23;;;;;;;;;;;;;;;22.59;30.75;97607.50;4905007;29;1038;-79
2021/09/17 11:59:49;;;;;;;;;;;;;;;22.73;30.49;97609.00;4904136;29;1252;-79
2021/09/17 12:02:15;;;;;;;;;;;;;;;22.62;30.65;97600.09;4904919;29;699;-79
2021/09/17 12:04:41;;;;;;;;;;;;;;;22.57;30.86;97592.19;4905034;29;704;-79
2021/09/17 12:07:07;;;;;;;;;;;;;;;22.57;30.76;97603.53;4903637;29;898;-79
2021/09/17 12:09:32;;;;;;;;;;;;;;;22.67;30.46;97593.06;4903806;29;982;-79
2021/09/17 12:11:58;;;;;;;;;;;;;;;22.54;30.61;97582.59;4904643;29;1895;-79
2021/09/17 12:14:23;;;;;;;;;;;;;;;22.53;30.71;97574.50;4904134;29;633;-79
2021/09/17 12:17:05;;;;;;;;;;;;;;;22.54;30.84;97578.97;4904781;29;679;-79
2021/09/17 12:19:31;;;;;;;;;;;;;;;22.61;30.84;97581.50;4904855;29;699;-79
2021/09/17 12:22:00;;;;;;;;;;;;;;;22.52;31.08;97581.44;4903794;29;1123;-79
2021/09/17 12:24:25;;;;;;;;;;;;;;;22.43;31.11;97598.38;4903745;29;956;-79
2021/09/17 12:26:52;;;;;;;;;;;;;;;22.63;30.69;97590.34;4904604;29;1001;-79
2021/09/17 12:29:24;;;;;;;;;;;;;;;22.72;30.54;97586.78;4904060;29;657;-79
2021/09/17 12:31:49;;;;;;;;;;;;;;;22.58;30.95;97588.09;4903880;29;1898;-79
2021/09/17 12:34:17;;;;;;;;;;;;;;;22.47;30.86;97587.72;4903929;29;605;-79
2021/09/17 12:36:42;;;;;;;;;;;;;;;22.45;31.25;97578.88;4903694;29;940;-79
2021/09/17 12:39:08;;;;;;;;;;;;;;;22.47;31.13;97587.72;4904390;29;881;-79
2021/09/17 12:41:34;;;;;;;;;;;;;;;22.55;30.72;97583.38;4904408;29;1024;-79
2021/09/17 12:44:06;;;;;;;;;;;;;;;22.62;30.71;97571.75;4904379;29;1088;-79
2021/09/17 12:46:33;;;;;;;;;;;;;;;22.66;30.62;97577.31;4903978;29;605;-79
2021/09/17 12:49:04;;;;;;;;;;;;;;;22.68;30.81;97581.25;4903907;29;656;-79
2021/09/17 12:51:30;;;;;;;;;;;;;;;22.66;30.56;97578.09;4904256;29;1984;-79
2021/09/17 12:54:08;;;;;;;;;;;;;;;22.69;30.80;97571.50;4904044;29;852;-79
2021/09/17 12:56:34;;;;;;;;;;;;;;;22.75;30.64;97580.19;4904479;29;640;-79
2021/09/17 12:59:09;;;;;;;;;;;;;;;22.77;30.67;97578.47;4904465;29;715;-79